sensor_id;sensor_type;location;lat;lon;timestamp;temperature;humidity
39189;DHT22;24915;50.858;4.376;2023-03-11T00:00:22;2.40;99.90
39189;DHT22;24915;50.858;4.376;2023-03-11T00:02:51;2.40;99.90
39189;DHT22;24915;50.858;4.376;2023-03-11T00:05:26;2.40;99.90
39189;DHT22;24915;50.858;4.376;2023-03-11T00:07:52;2.40;99.90
39189;DHT22;24915;50.858;4.376;2023-03-11T00:10:23;2.40;99.90
39189;DHT22;24915;50.858;4.376;2023-03-11T00:12:49;2.30;99.90
39189;DHT22;24915;50.858;4.376;2023-03-11T00:15:15;2.30;99.90
39189;DHT22;24915;50.858;4.376;2023-03-11T00:17:41;2.30;99.90
39189;DHT22;24915;50.858;4.376;2023-03-11T00:20:10;2.30;99.90
39189;DHT22;24915;50.858;4.376;2023-03-11T00:22:38;2.30;99.90
39189;DHT22;24915;50.858;4.376;2023-03-11T00:25:04;2.20;99.90
39189;DHT22;24915;50.858;4.376;2023-03-11T00:27:29;2.20;99.90
39189;DHT22;24915;50.858;4.376;2023-03-11T00:29:55;2.10;99.90
39189;DHT22;24915;50.858;4.376;2023-03-11T00:32:21;2.10;99.90
39189;DHT22;24915;50.858;4.376;2023-03-11T00:34:46;2.10;99.90
39189;DHT22;24915;50.858;4.376;2023-03-11T00:37:12;2.10;99.90
39189;DHT22;24915;50.858;4.376;2023-03-11T00:39:37;2.10;99.90
39189;DHT22;24915;50.858;4.376;2023-03-11T00:42:03;2.00;99.90
39189;DHT22;24915;50.858;4.376;2023-03-11T00:44:29;2.00;99.90
39189;DHT22;24915;50.858;4.376;2023-03-11T00:46:54;2.00;99.90
39189;DHT22;24915;50.858;4.376;2023-03-11T00:49:20;2.00;99.90
39189;DHT22;24915;50.858;4.376;2023-03-11T00:51:46;2.00;99.90
39189;DHT22;24915;50.858;4.376;2023-03-11T00:54:11;2.00;99.90
39189;DHT22;24915;50.858;4.376;2023-03-11T00:56:37;1.90;99.90
39189;DHT22;24915;50.858;4.376;2023-03-11T00:59:03;1.90;99.90
39189;DHT22;24915;50.858;4.376;2023-03-11T01:01:28;1.90;99.90
39189;DHT22;24915;50.858;4.376;2023-03-11T01:03:54;1.90;99.90
39189;DHT22;24915;50.858;4.376;2023-03-11T01:06:20;1.90;99.90
39189;DHT22;24915;50.858;4.376;2023-03-11T01:08:45;1.80;99.90
39189;DHT22;24915;50.858;4.376;2023-03-11T01:11:11;1.80;99.90
39189;DHT22;24915;50.858;4.376;2023-03-11T01:13:37;1.80;99.90
39189;DHT22;24915;50.858;4.376;2023-03-11T01:16:04;1.80;99.90
39189;DHT22;24915;50.858;4.376;2023-03-11T01:18:32;1.80;99.90
39189;DHT22;24915;50.858;4.376;2023-03-11T01:20:58;1.80;99.90
39189;DHT22;24915;50.858;4.376;2023-03-11T01:23:24;1.80;99.90
39189;DHT22;24915;50.858;4.376;2023-03-11T01:25:49;1.80;99.90
39189;DHT22;24915;50.858;4.376;2023-03-11T01:28:15;1.80;99.90
39189;DHT22;24915;50.858;4.376;2023-03-11T01:30:41;1.80;99.90
39189;DHT22;24915;50.858;4.376;2023-03-11T01:33:09;1.70;99.90
39189;DHT22;24915;50.858;4.376;2023-03-11T01:35:38;1.70;99.90
39189;DHT22;24915;50.858;4.376;2023-03-11T01:38:04;1.70;99.90
39189;DHT22;24915;50.858;4.376;2023-03-11T01:40:32;1.70;99.90
39189;DHT22;24915;50.858;4.376;2023-03-11T01:42:59;1.70;99.90
39189;DHT22;24915;50.858;4.376;2023-03-11T01:48:12;1.80;99.90
39189;DHT22;24915;50.858;4.376;2023-03-11T01:50:42;1.80;99.90
39189;DHT22;24915;50.858;4.376;2023-03-11T01:53:08;1.90;99.90
39189;DHT22;24915;50.858;4.376;2023-03-11T01:55:35;1.90;99.90
39189;DHT22;24915;50.858;4.376;2023-03-11T01:58:05;1.90;99.90
39189;DHT22;24915;50.858;4.376;2023-03-11T02:00:31;1.90;99.90
39189;DHT22;24915;50.858;4.376;2023-03-11T02:02:59;1.90;99.90
39189;DHT22;24915;50.858;4.376;2023-03-11T02:05:26;1.90;99.90
39189;DHT22;24915;50.858;4.376;2023-03-11T02:07:53;1.90;99.90
39189;DHT22;24915;50.858;4.376;2023-03-11T02:10:20;1.90;99.90
39189;DHT22;24915;50.858;4.376;2023-03-11T02:12:48;1.90;99.90
39189;DHT22;24915;50.858;4.376;2023-03-11T02:15:15;1.90;99.90
39189;DHT22;24915;50.858;4.376;2023-03-11T02:17:42;1.90;99.90
39189;DHT22;24915;50.858;4.376;2023-03-11T02:22:42;2.00;99.90
39189;DHT22;24915;50.858;4.376;2023-03-11T02:25:26;2.00;99.90
39189;DHT22;24915;50.858;4.376;2023-03-11T02:27:56;2.00;99.90
39189;DHT22;24915;50.858;4.376;2023-03-11T02:30:25;2.00;99.90
39189;DHT22;24915;50.858;4.376;2023-03-11T02:32:52;2.00;99.90
39189;DHT22;24915;50.858;4.376;2023-03-11T02:35:19;2.00;99.90
39189;DHT22;24915;50.858;4.376;2023-03-11T02:37:50;2.00;99.90
39189;DHT22;24915;50.858;4.376;2023-03-11T02:42:49;2.00;99.90
39189;DHT22;24915;50.858;4.376;2023-03-11T02:45:17;2.10;99.90
39189;DHT22;24915;50.858;4.376;2023-03-11T02:47:43;2.10;99.90
39189;DHT22;24915;50.858;4.376;2023-03-11T02:50:12;2.10;99.90
39189;DHT22;24915;50.858;4.376;2023-03-11T02:52:39;2.10;99.90
39189;DHT22;24915;50.858;4.376;2023-03-11T02:55:05;2.10;99.90
39189;DHT22;24915;50.858;4.376;2023-03-11T02:57:31;2.00;99.90
39189;DHT22;24915;50.858;4.376;2023-03-11T02:59:56;2.00;99.90
39189;DHT22;24915;50.858;4.376;2023-03-11T03:02:22;2.00;99.90
39189;DHT22;24915;50.858;4.376;2023-03-11T03:04:47;2.00;99.90
39189;DHT22;24915;50.858;4.376;2023-03-11T03:07:13;2.00;99.90
39189;DHT22;24915;50.858;4.376;2023-03-11T03:09:39;2.00;99.90
39189;DHT22;24915;50.858;4.376;2023-03-11T03:12:04;2.00;99.90
39189;DHT22;24915;50.858;4.376;2023-03-11T03:14:30;2.00;99.90
39189;DHT22;24915;50.858;4.376;2023-03-11T03:16:56;2.00;99.90
39189;DHT22;24915;50.858;4.376;2023-03-11T03:19:22;2.10;99.90
39189;DHT22;24915;50.858;4.376;2023-03-11T03:21:48;2.10;99.90
39189;DHT22;24915;50.858;4.376;2023-03-11T03:24:14;2.20;99.90
39189;DHT22;24915;50.858;4.376;2023-03-11T03:26:40;2.20;99.90
39189;DHT22;24915;50.858;4.376;2023-03-11T03:29:06;2.20;99.90
39189;DHT22;24915;50.858;4.376;2023-03-11T03:31:31;2.20;99.90
39189;DHT22;24915;50.858;4.376;2023-03-11T03:33:57;2.20;99.90
39189;DHT22;24915;50.858;4.376;2023-03-11T03:36:23;2.20;99.90
39189;DHT22;24915;50.858;4.376;2023-03-11T03:38:53;2.20;99.90
39189;DHT22;24915;50.858;4.376;2023-03-11T03:41:19;2.20;99.90
39189;DHT22;24915;50.858;4.376;2023-03-11T03:43:45;2.30;99.90
39189;DHT22;24915;50.858;4.376;2023-03-11T03:46:11;2.30;99.90
39189;DHT22;24915;50.858;4.376;2023-03-11T03:48:37;2.30;99.90
39189;DHT22;24915;50.858;4.376;2023-03-11T03:51:08;2.30;99.90
39189;DHT22;24915;50.858;4.376;2023-03-11T03:53:35;2.30;99.90
39189;DHT22;24915;50.858;4.376;2023-03-11T03:56:15;2.30;99.90
39189;DHT22;24915;50.858;4.376;2023-03-11T03:58:41;2.30;99.90
39189;DHT22;24915;50.858;4.376;2023-03-11T04:01:07;2.20;99.90
39189;DHT22;24915;50.858;4.376;2023-03-11T04:03:33;2.20;99.90
39189;DHT22;24915;50.858;4.376;2023-03-11T04:06:18;2.20;99.90
39189;DHT22;24915;50.858;4.376;2023-03-11T04:08:44;2.20;99.90
39189;DHT22;24915;50.858;4.376;2023-03-11T04:11:10;2.20;99.90
39189;DHT22;24915;50.858;4.376;2023-03-11T04:13:35;2.20;99.90
39189;DHT22;24915;50.858;4.376;2023-03-11T04:16:05;2.20;99.90
39189;DHT22;24915;50.858;4.376;2023-03-11T04:18:31;2.10;99.90
39189;DHT22;24915;50.858;4.376;2023-03-11T04:20:56;2.10;99.90
39189;DHT22;24915;50.858;4.376;2023-03-11T04:23:22;2.10;99.90
39189;DHT22;24915;50.858;4.376;2023-03-11T04:25:48;2.10;99.90
39189;DHT22;24915;50.858;4.376;2023-03-11T04:28:13;2.00;99.90
39189;DHT22;24915;50.858;4.376;2023-03-11T04:30:39;2.00;99.90
39189;DHT22;24915;50.858;4.376;2023-03-11T04:33:05;2.00;99.90
39189;DHT22;24915;50.858;4.376;2023-03-11T04:35:31;2.00;99.90
39189;DHT22;24915;50.858;4.376;2023-03-11T04:37:56;2.00;99.90
39189;DHT22;24915;50.858;4.376;2023-03-11T04:40:22;2.00;99.90
39189;DHT22;24915;50.858;4.376;2023-03-11T04:42:47;2.00;99.90
39189;DHT22;24915;50.858;4.376;2023-03-11T04:45:13;2.00;99.90
39189;DHT22;24915;50.858;4.376;2023-03-11T04:47:39;2.00;99.90
39189;DHT22;24915;50.858;4.376;2023-03-11T04:50:05;2.10;99.90
39189;DHT22;24915;50.858;4.376;2023-03-11T04:52:30;2.00;99.90
39189;DHT22;24915;50.858;4.376;2023-03-11T04:54:56;2.00;99.90
39189;DHT22;24915;50.858;4.376;2023-03-11T04:57:21;2.00;99.90
39189;DHT22;24915;50.858;4.376;2023-03-11T04:59:47;2.10;99.90
39189;DHT22;24915;50.858;4.376;2023-03-11T05:02:13;2.00;99.90
39189;DHT22;24915;50.858;4.376;2023-03-11T05:04:38;2.00;99.90
39189;DHT22;24915;50.858;4.376;2023-03-11T05:07:04;2.00;99.90
39189;DHT22;24915;50.858;4.376;2023-03-11T05:09:30;2.00;99.90
39189;DHT22;24915;50.858;4.376;2023-03-11T05:11:55;1.90;99.90
39189;DHT22;24915;50.858;4.376;2023-03-11T05:14:21;1.90;99.90
39189;DHT22;24915;50.858;4.376;2023-03-11T05:16:47;1.90;99.90
39189;DHT22;24915;50.858;4.376;2023-03-11T05:19:13;1.90;99.90
39189;DHT22;24915;50.858;4.376;2023-03-11T05:21:59;1.80;99.90
39189;DHT22;24915;50.858;4.376;2023-03-11T05:24:25;1.80;99.90
39189;DHT22;24915;50.858;4.376;2023-03-11T05:26:51;1.80;99.90
39189;DHT22;24915;50.858;4.376;2023-03-11T05:29:18;1.80;99.90
39189;DHT22;24915;50.858;4.376;2023-03-11T05:31:44;1.80;99.90
39189;DHT22;24915;50.858;4.376;2023-03-11T05:34:09;1.70;99.90
39189;DHT22;24915;50.858;4.376;2023-03-11T05:36:35;1.70;99.90
39189;DHT22;24915;50.858;4.376;2023-03-11T05:39:00;1.70;99.90
39189;DHT22;24915;50.858;4.376;2023-03-11T05:41:26;1.60;99.90
39189;DHT22;24915;50.858;4.376;2023-03-11T05:43:52;1.60;99.90
39189;DHT22;24915;50.858;4.376;2023-03-11T05:46:17;1.50;99.90
39189;DHT22;24915;50.858;4.376;2023-03-11T05:48:45;1.50;99.90
39189;DHT22;24915;50.858;4.376;2023-03-11T05:51:11;1.60;99.90
39189;DHT22;24915;50.858;4.376;2023-03-11T05:53:37;1.50;99.90
39189;DHT22;24915;50.858;4.376;2023-03-11T05:56:04;1.50;99.90
39189;DHT22;24915;50.858;4.376;2023-03-11T05:58:31;1.50;99.90
39189;DHT22;24915;50.858;4.376;2023-03-11T06:00:57;1.50;99.90
39189;DHT22;24915;50.858;4.376;2023-03-11T06:03:24;1.50;99.90
39189;DHT22;24915;50.858;4.376;2023-03-11T06:05:50;1.50;99.90
39189;DHT22;24915;50.858;4.376;2023-03-11T06:08:17;1.50;99.90
39189;DHT22;24915;50.858;4.376;2023-03-11T06:10:44;1.50;99.90
39189;DHT22;24915;50.858;4.376;2023-03-11T06:13:09;1.60;99.90
39189;DHT22;24915;50.858;4.376;2023-03-11T06:15:36;1.60;99.90
39189;DHT22;24915;50.858;4.376;2023-03-11T06:18:02;1.60;99.90
39189;DHT22;24915;50.858;4.376;2023-03-11T06:20:28;1.70;99.90
39189;DHT22;24915;50.858;4.376;2023-03-11T06:22:54;1.70;99.90
39189;DHT22;24915;50.858;4.376;2023-03-11T06:25:20;1.70;99.90
39189;DHT22;24915;50.858;4.376;2023-03-11T06:27:50;1.70;99.90
39189;DHT22;24915;50.858;4.376;2023-03-11T06:30:17;1.80;99.90
39189;DHT22;24915;50.858;4.376;2023-03-11T06:32:44;1.90;99.90
39189;DHT22;24915;50.858;4.376;2023-03-11T06:35:10;1.90;99.90
39189;DHT22;24915;50.858;4.376;2023-03-11T06:37:36;1.90;99.90
39189;DHT22;24915;50.858;4.376;2023-03-11T06:40:06;1.90;99.90
39189;DHT22;24915;50.858;4.376;2023-03-11T06:42:34;2.00;99.90
39189;DHT22;24915;50.858;4.376;2023-03-11T06:44:59;2.10;99.90
39189;DHT22;24915;50.858;4.376;2023-03-11T06:47:25;2.20;99.90
39189;DHT22;24915;50.858;4.376;2023-03-11T06:49:51;2.30;99.90
39189;DHT22;24915;50.858;4.376;2023-03-11T06:52:18;2.30;99.90
39189;DHT22;24915;50.858;4.376;2023-03-11T06:54:44;2.40;99.90
39189;DHT22;24915;50.858;4.376;2023-03-11T06:57:10;2.40;99.90
39189;DHT22;24915;50.858;4.376;2023-03-11T06:59:36;2.50;99.90
39189;DHT22;24915;50.858;4.376;2023-03-11T07:02:05;2.60;99.90
39189;DHT22;24915;50.858;4.376;2023-03-11T07:04:31;2.70;99.90
39189;DHT22;24915;50.858;4.376;2023-03-11T07:06:57;2.80;99.90
39189;DHT22;24915;50.858;4.376;2023-03-11T07:09:23;3.10;99.90
39189;DHT22;24915;50.858;4.376;2023-03-11T07:11:50;3.20;99.90
39189;DHT22;24915;50.858;4.376;2023-03-11T07:14:17;3.40;99.90
39189;DHT22;24915;50.858;4.376;2023-03-11T07:16:43;3.60;99.90
39189;DHT22;24915;50.858;4.376;2023-03-11T07:19:10;3.70;99.90
39189;DHT22;24915;50.858;4.376;2023-03-11T07:21:36;3.80;99.90
39189;DHT22;24915;50.858;4.376;2023-03-11T07:24:03;3.80;99.90
39189;DHT22;24915;50.858;4.376;2023-03-11T07:26:30;3.90;99.90
39189;DHT22;24915;50.858;4.376;2023-03-11T07:28:57;4.10;99.90
39189;DHT22;24915;50.858;4.376;2023-03-11T07:31:25;4.30;99.90
39189;DHT22;24915;50.858;4.376;2023-03-11T07:33:51;4.50;99.90
39189;DHT22;24915;50.858;4.376;2023-03-11T07:36:20;4.70;99.90
39189;DHT22;24915;50.858;4.376;2023-03-11T07:38:46;4.80;99.90
39189;DHT22;24915;50.858;4.376;2023-03-11T07:41:12;5.00;99.90
39189;DHT22;24915;50.858;4.376;2023-03-11T07:43:39;5.20;99.90
39189;DHT22;24915;50.858;4.376;2023-03-11T07:46:13;5.30;99.90
39189;DHT22;24915;50.858;4.376;2023-03-11T07:48:44;5.40;99.90
39189;DHT22;24915;50.858;4.376;2023-03-11T07:51:13;5.40;99.90
39189;DHT22;24915;50.858;4.376;2023-03-11T07:53:40;5.50;99.90
39189;DHT22;24915;50.858;4.376;2023-03-11T07:56:07;5.70;99.90
39189;DHT22;24915;50.858;4.376;2023-03-11T07:58:33;5.80;99.90
39189;DHT22;24915;50.858;4.376;2023-03-11T08:01:04;5.90;99.90
39189;DHT22;24915;50.858;4.376;2023-03-11T08:03:31;6.10;99.90
39189;DHT22;24915;50.858;4.376;2023-03-11T08:05:57;6.30;99.90
39189;DHT22;24915;50.858;4.376;2023-03-11T08:08:23;6.50;99.90
39189;DHT22;24915;50.858;4.376;2023-03-11T08:10:48;6.60;99.90
39189;DHT22;24915;50.858;4.376;2023-03-11T08:13:14;6.60;99.90
39189;DHT22;24915;50.858;4.376;2023-03-11T08:15:39;6.70;99.90
39189;DHT22;24915;50.858;4.376;2023-03-11T08:18:05;6.80;99.90
39189;DHT22;24915;50.858;4.376;2023-03-11T08:20:31;7.00;99.90
39189;DHT22;24915;50.858;4.376;2023-03-11T08:22:56;7.00;99.90
39189;DHT22;24915;50.858;4.376;2023-03-11T08:25:22;7.20;99.90
39189;DHT22;24915;50.858;4.376;2023-03-11T08:27:48;7.30;99.90
39189;DHT22;24915;50.858;4.376;2023-03-11T08:30:13;7.40;99.90
39189;DHT22;24915;50.858;4.376;2023-03-11T08:32:39;7.50;99.90
39189;DHT22;24915;50.858;4.376;2023-03-11T08:35:05;7.70;99.90
39189;DHT22;24915;50.858;4.376;2023-03-11T08:37:31;7.80;99.90
39189;DHT22;24915;50.858;4.376;2023-03-11T08:39:57;7.90;99.90
39189;DHT22;24915;50.858;4.376;2023-03-11T08:42:22;8.10;99.90
39189;DHT22;24915;50.858;4.376;2023-03-11T08:44:48;8.20;99.90
39189;DHT22;24915;50.858;4.376;2023-03-11T08:47:13;8.40;99.90
39189;DHT22;24915;50.858;4.376;2023-03-11T08:49:39;8.60;99.90
39189;DHT22;24915;50.858;4.376;2023-03-11T08:52:05;8.80;99.90
39189;DHT22;24915;50.858;4.376;2023-03-11T08:54:31;9.00;99.90
39189;DHT22;24915;50.858;4.376;2023-03-11T08:56:56;9.10;99.90
39189;DHT22;24915;50.858;4.376;2023-03-11T08:59:27;9.20;99.90
39189;DHT22;24915;50.858;4.376;2023-03-11T09:01:53;9.30;99.90
39189;DHT22;24915;50.858;4.376;2023-03-11T09:04:19;9.10;99.90
39189;DHT22;24915;50.858;4.376;2023-03-11T09:06:45;8.90;99.90
39189;DHT22;24915;50.858;4.376;2023-03-11T09:09:11;8.90;99.90
39189;DHT22;24915;50.858;4.376;2023-03-11T09:11:37;8.90;99.90
39189;DHT22;24915;50.858;4.376;2023-03-11T09:14:03;9.00;99.90
39189;DHT22;24915;50.858;4.376;2023-03-11T09:16:29;9.10;99.90
39189;DHT22;24915;50.858;4.376;2023-03-11T09:18:55;9.10;99.90
39189;DHT22;24915;50.858;4.376;2023-03-11T09:21:21;9.20;99.90
39189;DHT22;24915;50.858;4.376;2023-03-11T09:23:47;9.40;99.90
39189;DHT22;24915;50.858;4.376;2023-03-11T09:26:13;9.40;99.90
39189;DHT22;24915;50.858;4.376;2023-03-11T09:28:39;9.20;99.90
39189;DHT22;24915;50.858;4.376;2023-03-11T09:31:05;8.80;99.90
39189;DHT22;24915;50.858;4.376;2023-03-11T09:33:36;8.70;99.90
39189;DHT22;24915;50.858;4.376;2023-03-11T09:36:02;8.80;99.90
39189;DHT22;24915;50.858;4.376;2023-03-11T09:38:28;8.80;99.90
39189;DHT22;24915;50.858;4.376;2023-03-11T09:41:21;8.80;99.90
39189;DHT22;24915;50.858;4.376;2023-03-11T10:00:47;10.10;99.90
39189;DHT22;24915;50.858;4.376;2023-03-11T10:03:24;10.20;99.90
39189;DHT22;24915;50.858;4.376;2023-03-11T10:05:54;10.20;99.90
39189;DHT22;24915;50.858;4.376;2023-03-11T10:08:38;10.20;99.90
39189;DHT22;24915;50.858;4.376;2023-03-11T10:17:04;9.80;99.90
39189;DHT22;24915;50.858;4.376;2023-03-11T10:19:32;9.90;99.90
39189;DHT22;24915;50.858;4.376;2023-03-11T10:22:05;9.90;99.90
39189;DHT22;24915;50.858;4.376;2023-03-11T10:27:44;9.60;99.90
39189;DHT22;24915;50.858;4.376;2023-03-11T10:30:44;9.50;99.90
39189;DHT22;24915;50.858;4.376;2023-03-11T10:33:21;9.50;99.90
39189;DHT22;24915;50.858;4.376;2023-03-11T10:35:54;9.60;99.90
39189;DHT22;24915;50.858;4.376;2023-03-11T10:38:30;9.60;99.90
39189;DHT22;24915;50.858;4.376;2023-03-11T10:41:04;9.80;99.90
39189;DHT22;24915;50.858;4.376;2023-03-11T10:43:36;9.90;99.90
39189;DHT22;24915;50.858;4.376;2023-03-11T10:46:06;10.00;99.90
39189;DHT22;24915;50.858;4.376;2023-03-11T10:48:31;10.10;99.90
39189;DHT22;24915;50.858;4.376;2023-03-11T10:51:01;10.10;99.90
39189;DHT22;24915;50.858;4.376;2023-03-11T10:53:27;10.20;99.90
39189;DHT22;24915;50.858;4.376;2023-03-11T10:55:57;10.40;99.60
39189;DHT22;24915;50.858;4.376;2023-03-11T10:58:28;10.50;99.90
39189;DHT22;24915;50.858;4.376;2023-03-11T11:01:16;10.70;99.90
39189;DHT22;24915;50.858;4.376;2023-03-11T11:03:48;10.70;99.00
39189;DHT22;24915;50.858;4.376;2023-03-11T11:06:34;10.80;99.50
39189;DHT22;24915;50.858;4.376;2023-03-11T11:09:20;10.90;99.70
39189;DHT22;24915;50.858;4.376;2023-03-11T11:12:14;11.00;99.90
39189;DHT22;24915;50.858;4.376;2023-03-11T11:14:47;10.90;97.90
39189;DHT22;24915;50.858;4.376;2023-03-11T11:17:25;10.70;96.40
39189;DHT22;24915;50.858;4.376;2023-03-11T11:19:54;10.40;96.70
39189;DHT22;24915;50.858;4.376;2023-03-11T11:22:24;10.50;96.60
39189;DHT22;24915;50.858;4.376;2023-03-11T11:24:52;10.80;97.80
39189;DHT22;24915;50.858;4.376;2023-03-11T11:27:27;11.10;98.30
39189;DHT22;24915;50.858;4.376;2023-03-11T11:30:11;11.20;99.00
39189;DHT22;24915;50.858;4.376;2023-03-11T11:32:38;11.30;98.20
39189;DHT22;24915;50.858;4.376;2023-03-11T11:35:11;11.30;98.90
39189;DHT22;24915;50.858;4.376;2023-03-11T11:37:47;11.40;97.50
39189;DHT22;24915;50.858;4.376;2023-03-11T11:42:42;11.20;96.00
39189;DHT22;24915;50.858;4.376;2023-03-11T11:45:20;11.10;96.60
39189;DHT22;24915;50.858;4.376;2023-03-11T11:47:58;11.00;96.90
39189;DHT22;24915;50.858;4.376;2023-03-11T11:53:14;10.80;96.60
39189;DHT22;24915;50.858;4.376;2023-03-11T11:55:47;10.80;96.30
39189;DHT22;24915;50.858;4.376;2023-03-11T11:58:13;10.90;96.60
39189;DHT22;24915;50.858;4.376;2023-03-11T12:00:46;11.00;97.60
39189;DHT22;24915;50.858;4.376;2023-03-11T12:03:29;11.10;95.70
39189;DHT22;24915;50.858;4.376;2023-03-11T12:11:46;11.00;95.10
39189;DHT22;24915;50.858;4.376;2023-03-11T12:17:02;11.00;95.20
39189;DHT22;24915;50.858;4.376;2023-03-11T12:19:47;11.30;97.10
39189;DHT22;24915;50.858;4.376;2023-03-11T12:30:32;13.20;93.70
39189;DHT22;24915;50.858;4.376;2023-03-11T12:33:08;13.50;96.00
39189;DHT22;24915;50.858;4.376;2023-03-11T12:35:37;13.80;95.30
39189;DHT22;24915;50.858;4.376;2023-03-11T12:38:30;13.80;91.90
39189;DHT22;24915;50.858;4.376;2023-03-11T12:46:04;14.40;94.50
39189;DHT22;24915;50.858;4.376;2023-03-11T12:49:10;14.30;90.90
39189;DHT22;24915;50.858;4.376;2023-03-11T12:51:36;14.20;93.00
39189;DHT22;24915;50.858;4.376;2023-03-11T12:54:48;14.10;93.80
39189;DHT22;24915;50.858;4.376;2023-03-11T12:57:33;13.90;93.40
39189;DHT22;24915;50.858;4.376;2023-03-11T13:10:50;12.10;92.50
39189;DHT22;24915;50.858;4.376;2023-03-11T13:13:38;12.60;95.70
39189;DHT22;24915;50.858;4.376;2023-03-11T13:18:37;14.00;90.70
39189;DHT22;24915;50.858;4.376;2023-03-11T13:21:04;13.80;88.40
39189;DHT22;24915;50.858;4.376;2023-03-11T13:23:37;14.00;92.70
39189;DHT22;24915;50.858;4.376;2023-03-11T13:26:29;14.50;91.10
39189;DHT22;24915;50.858;4.376;2023-03-11T13:29:10;14.80;83.90
39189;DHT22;24915;50.858;4.376;2023-03-11T13:34:46;14.70;77.20
39189;DHT22;24915;50.858;4.376;2023-03-11T13:37:25;14.20;84.80
39189;DHT22;24915;50.858;4.376;2023-03-11T13:42:48;12.90;77.50
39189;DHT22;24915;50.858;4.376;2023-03-11T13:48:05;11.40;81.90
39189;DHT22;24915;50.858;4.376;2023-03-11T13:50:38;11.50;85.70
39189;DHT22;24915;50.858;4.376;2023-03-11T13:53:15;12.20;92.10
39189;DHT22;24915;50.858;4.376;2023-03-11T13:55:44;13.20;92.10
39189;DHT22;24915;50.858;4.376;2023-03-11T13:58:17;14.00;83.30
39189;DHT22;24915;50.858;4.376;2023-03-11T14:00:52;14.50;83.70
39189;DHT22;24915;50.858;4.376;2023-03-11T14:03:19;15.10;86.80
39189;DHT22;24915;50.858;4.376;2023-03-11T14:05:49;15.60;84.50
39189;DHT22;24915;50.858;4.376;2023-03-11T14:08:34;15.70;72.50
39189;DHT22;24915;50.858;4.376;2023-03-11T14:11:02;15.30;72.70
39189;DHT22;24915;50.858;4.376;2023-03-11T14:13:32;15.60;73.40
39189;DHT22;24915;50.858;4.376;2023-03-11T14:18:39;16.20;80.40
39189;DHT22;24915;50.858;4.376;2023-03-11T14:21:19;16.90;81.10
39189;DHT22;24915;50.858;4.376;2023-03-11T14:23:48;17.40;66.20
39189;DHT22;24915;50.858;4.376;2023-03-11T14:28:53;18.40;69.60
39189;DHT22;24915;50.858;4.376;2023-03-11T14:31:31;18.40;63.50
39189;DHT22;24915;50.858;4.376;2023-03-11T14:33:59;18.40;64.50
39189;DHT22;24915;50.858;4.376;2023-03-11T14:36:42;19.40;69.00
39189;DHT22;24915;50.858;4.376;2023-03-11T14:44:23;24.30;47.10
39189;DHT22;24915;50.858;4.376;2023-03-11T14:46:51;23.80;41.10
39189;DHT22;24915;50.858;4.376;2023-03-11T14:49:22;22.90;40.60
39189;DHT22;24915;50.858;4.376;2023-03-11T14:51:55;22.60;41.00
39189;DHT22;24915;50.858;4.376;2023-03-11T14:54:26;22.90;40.30
39189;DHT22;24915;50.858;4.376;2023-03-11T14:57:04;22.00;40.30
39189;DHT22;24915;50.858;4.376;2023-03-11T14:59:32;23.00;45.20
39189;DHT22;24915;50.858;4.376;2023-03-11T15:02:21;23.50;39.50
39189;DHT22;24915;50.858;4.376;2023-03-11T15:04:52;24.00;40.10
39189;DHT22;24915;50.858;4.376;2023-03-11T15:07:19;25.30;40.20
39189;DHT22;24915;50.858;4.376;2023-03-11T15:09:45;26.00;40.30
39189;DHT22;24915;50.858;4.376;2023-03-11T15:12:32;26.20;40.30
39189;DHT22;24915;50.858;4.376;2023-03-11T15:14:58;26.00;40.30
39189;DHT22;24915;50.858;4.376;2023-03-11T15:17:26;26.10;39.40
39189;DHT22;24915;50.858;4.376;2023-03-11T15:19:57;26.10;36.80
39189;DHT22;24915;50.858;4.376;2023-03-11T15:22:37;24.90;38.90
39189;DHT22;24915;50.858;4.376;2023-03-11T15:25:17;25.50;38.40
39189;DHT22;24915;50.858;4.376;2023-03-11T15:27:43;25.40;37.40
39189;DHT22;24915;50.858;4.376;2023-03-11T15:30:28;24.00;35.00
39189;DHT22;24915;50.858;4.376;2023-03-11T15:32:55;23.10;36.20
39189;DHT22;24915;50.858;4.376;2023-03-11T15:35:26;22.50;37.30
39189;DHT22;24915;50.858;4.376;2023-03-11T15:40:50;23.10;37.30
39189;DHT22;24915;50.858;4.376;2023-03-11T15:43:21;23.80;40.60
39189;DHT22;24915;50.858;4.376;2023-03-11T15:45:48;23.30;38.30
39189;DHT22;24915;50.858;4.376;2023-03-11T15:48:15;21.30;43.50
39189;DHT22;24915;50.858;4.376;2023-03-11T15:50:51;19.40;46.50
39189;DHT22;24915;50.858;4.376;2023-03-11T15:53:18;17.60;45.90
39189;DHT22;24915;50.858;4.376;2023-03-11T15:55:45;16.10;46.60
39189;DHT22;24915;50.858;4.376;2023-03-11T15:58:15;14.80;48.30
39189;DHT22;24915;50.858;4.376;2023-03-11T16:00:54;13.80;50.80
39189;DHT22;24915;50.858;4.376;2023-03-11T16:03:21;12.80;51.40
39189;DHT22;24915;50.858;4.376;2023-03-11T16:05:47;12.30;54.00
39189;DHT22;24915;50.858;4.376;2023-03-11T16:08:14;11.90;53.70
39189;DHT22;24915;50.858;4.376;2023-03-11T16:10:40;11.50;56.10
39189;DHT22;24915;50.858;4.376;2023-03-11T16:13:10;11.10;56.70
39189;DHT22;24915;50.858;4.376;2023-03-11T16:15:37;10.90;58.40
39189;DHT22;24915;50.858;4.376;2023-03-11T16:18:04;10.70;61.70
39189;DHT22;24915;50.858;4.376;2023-03-11T16:20:40;10.80;63.90
39189;DHT22;24915;50.858;4.376;2023-03-11T16:23:11;10.80;64.80
39189;DHT22;24915;50.858;4.376;2023-03-11T16:25:39;10.60;59.80
39189;DHT22;24915;50.858;4.376;2023-03-11T16:28:05;10.30;59.30
39189;DHT22;24915;50.858;4.376;2023-03-11T16:30:33;10.00;60.80
39189;DHT22;24915;50.858;4.376;2023-03-11T16:32:59;9.80;61.20
39189;DHT22;24915;50.858;4.376;2023-03-11T16:35:25;9.60;61.10
39189;DHT22;24915;50.858;4.376;2023-03-11T16:37:51;9.40;60.70
39189;DHT22;24915;50.858;4.376;2023-03-11T16:40:20;9.20;61.30
39189;DHT22;24915;50.858;4.376;2023-03-11T16:42:46;9.10;63.10
39189;DHT22;24915;50.858;4.376;2023-03-11T16:45:14;9.00;62.90
39189;DHT22;24915;50.858;4.376;2023-03-11T16:47:40;8.90;62.90
39189;DHT22;24915;50.858;4.376;2023-03-11T16:50:07;8.70;63.40
39189;DHT22;24915;50.858;4.376;2023-03-11T16:52:33;8.70;66.70
39189;DHT22;24915;50.858;4.376;2023-03-11T16:54:58;8.70;65.70
39189;DHT22;24915;50.858;4.376;2023-03-11T16:57:24;8.70;65.60
39189;DHT22;24915;50.858;4.376;2023-03-11T16:59:50;8.70;66.70
39189;DHT22;24915;50.858;4.376;2023-03-11T17:02:17;8.70;66.60
39189;DHT22;24915;50.858;4.376;2023-03-11T17:04:42;8.60;65.70
39189;DHT22;24915;50.858;4.376;2023-03-11T17:07:08;8.40;65.90
39189;DHT22;24915;50.858;4.376;2023-03-11T17:09:34;8.30;67.70
39189;DHT22;24915;50.858;4.376;2023-03-11T17:12:01;8.20;68.00
39189;DHT22;24915;50.858;4.376;2023-03-11T17:14:27;8.20;69.50
39189;DHT22;24915;50.858;4.376;2023-03-11T17:16:53;8.20;70.90
39189;DHT22;24915;50.858;4.376;2023-03-11T17:19:20;8.20;71.80
39189;DHT22;24915;50.858;4.376;2023-03-11T17:21:46;8.20;69.90
39189;DHT22;24915;50.858;4.376;2023-03-11T17:24:11;8.10;69.00
39189;DHT22;24915;50.858;4.376;2023-03-11T17:26:37;8.00;70.00
39189;DHT22;24915;50.858;4.376;2023-03-11T17:29:03;7.90;72.50